sensor_id;sensor_type;location;lat;lon;timestamp;P1;durP1;ratioP1;P2;durP2;ratioP2
75548;SDS011;64133;56.002;37.208;2024-01-30T00:09:49;1.57;;;0.90;;
75548;SDS011;64133;56.002;37.208;2024-01-30T00:14:54;3.40;;;1.25;;
75548;SDS011;64133;56.002;37.208;2024-01-30T00:19:59;3.10;;;1.30;;
75548;SDS011;64133;56.002;37.208;2024-01-30T00:25:04;2.80;;;1.32;;
75548;SDS011;64133;56.002;37.208;2024-01-30T00:30:11;3.12;;;1.30;;
75548;SDS011;64133;56.002;37.208;2024-01-30T00:35:17;1.95;;;0.80;;
75548;SDS011;64133;56.002;37.208;2024-01-30T00:40:21;2.27;;;0.75;;
75548;SDS011;64133;56.002;37.208;2024-01-30T00:45:26;3.55;;;1.65;;
75548;SDS011;64133;56.002;37.208;2024-01-30T00:50:31;2.02;;;1.05;;
75548;SDS011;64133;56.002;37.208;2024-01-30T00:55:36;2.83;;;1.30;;
75548;SDS011;64133;56.002;37.208;2024-01-30T01:00:41;2.00;;;1.50;;
75548;SDS011;64133;56.002;37.208;2024-01-30T01:05:46;2.62;;;1.75;;
75548;SDS011;64133;56.002;37.208;2024-01-30T01:10:51;1.82;;;1.10;;
75548;SDS011;64133;56.002;37.208;2024-01-30T01:15:56;2.33;;;1.15;;
75548;SDS011;64133;56.002;37.208;2024-01-30T01:21:00;1.90;;;1.00;;
75548;SDS011;64133;56.002;37.208;2024-01-30T01:26:05;1.57;;;1.47;;
75548;SDS011;64133;56.002;37.208;2024-01-30T01:31:12;5.05;;;1.57;;
75548;SDS011;64133;56.002;37.208;2024-01-30T01:36:17;1.77;;;1.20;;
75548;SDS011;64133;56.002;37.208;2024-01-30T01:41:22;3.42;;;1.57;;
75548;SDS011;64133;56.002;37.208;2024-01-30T01:46:27;2.98;;;1.80;;
75548;SDS011;64133;56.002;37.208;2024-01-30T01:51:33;2.67;;;1.82;;
75548;SDS011;64133;56.002;37.208;2024-01-30T01:56:37;1.65;;;1.37;;
75548;SDS011;64133;56.002;37.208;2024-01-30T02:01:42;1.92;;;1.25;;
75548;SDS011;64133;56.002;37.208;2024-01-30T02:06:47;3.52;;;1.32;;
75548;SDS011;64133;56.002;37.208;2024-01-30T02:11:52;2.62;;;1.62;;
75548;SDS011;64133;56.002;37.208;2024-01-30T02:16:57;1.75;;;1.22;;
75548;SDS011;64133;56.002;37.208;2024-01-30T02:22:02;1.82;;;0.93;;
75548;SDS011;64133;56.002;37.208;2024-01-30T02:27:07;3.72;;;2.10;;
75548;SDS011;64133;56.002;37.208;2024-01-30T02:32:12;1.98;;;0.95;;
75548;SDS011;64133;56.002;37.208;2024-01-30T02:37:17;5.78;;;1.65;;
75548;SDS011;64133;56.002;37.208;2024-01-30T02:42:22;2.37;;;1.20;;
75548;SDS011;64133;56.002;37.208;2024-01-30T02:47:27;1.40;;;0.70;;
75548;SDS011;64133;56.002;37.208;2024-01-30T02:52:32;2.67;;;1.55;;
75548;SDS011;64133;56.002;37.208;2024-01-30T02:57:36;3.47;;;0.90;;
75548;SDS011;64133;56.002;37.208;2024-01-30T03:02:41;2.62;;;1.30;;
75548;SDS011;64133;56.002;37.208;2024-01-30T03:07:46;2.22;;;1.00;;
75548;SDS011;64133;56.002;37.208;2024-01-30T03:12:51;3.12;;;1.22;;
75548;SDS011;64133;56.002;37.208;2024-01-30T03:17:56;2.27;;;1.57;;
75548;SDS011;64133;56.002;37.208;2024-01-30T03:23:01;4.75;;;2.05;;
75548;SDS011;64133;56.002;37.208;2024-01-30T03:28:06;3.92;;;1.72;;
75548;SDS011;64133;56.002;37.208;2024-01-30T03:33:11;3.95;;;2.33;;
75548;SDS011;64133;56.002;37.208;2024-01-30T03:38:16;2.12;;;1.17;;
75548;SDS011;64133;56.002;37.208;2024-01-30T03:43:21;2.02;;;1.32;;
75548;SDS011;64133;56.002;37.208;2024-01-30T03:48:26;3.98;;;1.80;;
75548;SDS011;64133;56.002;37.208;2024-01-30T03:53:30;2.10;;;1.45;;
75548;SDS011;64133;56.002;37.208;2024-01-30T03:58:35;4.83;;;1.35;;
75548;SDS011;64133;56.002;37.208;2024-01-30T04:03:40;4.30;;;2.67;;
75548;SDS011;64133;56.002;37.208;2024-01-30T04:08:45;3.05;;;1.20;;
75548;SDS011;64133;56.002;37.208;2024-01-30T04:13:50;2.85;;;1.72;;
75548;SDS011;64133;56.002;37.208;2024-01-30T04:18:55;2.65;;;2.35;;
75548;SDS011;64133;56.002;37.208;2024-01-30T04:24:00;3.10;;;1.82;;
75548;SDS011;64133;56.002;37.208;2024-01-30T04:29:05;2.92;;;2.00;;
75548;SDS011;64133;56.002;37.208;2024-01-30T04:34:10;3.22;;;2.00;;
75548;SDS011;64133;56.002;37.208;2024-01-30T04:39:15;3.72;;;1.57;;
75548;SDS011;64133;56.002;37.208;2024-01-30T04:44:20;4.70;;;2.75;;
75548;SDS011;64133;56.002;37.208;2024-01-30T04:49:24;3.33;;;1.72;;
75548;SDS011;64133;56.002;37.208;2024-01-30T04:54:29;3.20;;;2.05;;
75548;SDS011;64133;56.002;37.208;2024-01-30T04:59:34;2.52;;;1.80;;
75548;SDS011;64133;56.002;37.208;2024-01-30T05:04:39;6.30;;;2.17;;
75548;SDS011;64133;56.002;37.208;2024-01-30T05:09:45;4.25;;;1.95;;
75548;SDS011;64133;56.002;37.208;2024-01-30T05:14:50;3.50;;;2.00;;
75548;SDS011;64133;56.002;37.208;2024-01-30T05:19:54;3.83;;;2.60;;
75548;SDS011;64133;56.002;37.208;2024-01-30T05:24:59;3.65;;;2.47;;
75548;SDS011;64133;56.002;37.208;2024-01-30T05:30:05;4.85;;;2.62;;
75548;SDS011;64133;56.002;37.208;2024-01-30T05:35:11;8.08;;;2.62;;
75548;SDS011;64133;56.002;37.208;2024-01-30T05:40:16;3.10;;;2.05;;
75548;SDS011;64133;56.002;37.208;2024-01-30T05:45:21;4.70;;;1.67;;
75548;SDS011;64133;56.002;37.208;2024-01-30T05:50:26;8.70;;;2.65;;
75548;SDS011;64133;56.002;37.208;2024-01-30T05:55:31;5.85;;;3.00;;
75548;SDS011;64133;56.002;37.208;2024-01-30T06:00:36;3.70;;;1.60;;
75548;SDS011;64133;56.002;37.208;2024-01-30T06:05:41;4.17;;;1.92;;
75548;SDS011;64133;56.002;37.208;2024-01-30T06:10:46;5.50;;;2.33;;
75548;SDS011;64133;56.002;37.208;2024-01-30T06:15:51;3.33;;;2.30;;
75548;SDS011;64133;56.002;37.208;2024-01-30T06:20:57;8.03;;;2.55;;
75548;SDS011;64133;56.002;37.208;2024-01-30T06:26:04;7.55;;;2.27;;
75548;SDS011;64133;56.002;37.208;2024-01-30T06:31:09;3.62;;;2.08;;
75548;SDS011;64133;56.002;37.208;2024-01-30T06:36:15;4.97;;;1.65;;
75548;SDS011;64133;56.002;37.208;2024-01-30T06:41:21;6.45;;;3.08;;
75548;SDS011;64133;56.002;37.208;2024-01-30T06:46:28;6.53;;;2.10;;
75548;SDS011;64133;56.002;37.208;2024-01-30T06:51:35;4.75;;;2.12;;
75548;SDS011;64133;56.002;37.208;2024-01-30T06:56:41;4.62;;;2.80;;
75548;SDS011;64133;56.002;37.208;2024-01-30T07:01:49;4.28;;;1.72;;
75548;SDS011;64133;56.002;37.208;2024-01-30T07:07:00;6.08;;;2.45;;
75548;SDS011;64133;56.002;37.208;2024-01-30T07:12:09;7.80;;;1.95;;
75548;SDS011;64133;56.002;37.208;2024-01-30T07:17:28;9.50;;;3.50;;
75548;SDS011;64133;56.002;37.208;2024-01-30T07:22:39;12.43;;;2.65;;
75548;SDS011;64133;56.002;37.208;2024-01-30T07:27:46;7.17;;;2.65;;
75548;SDS011;64133;56.002;37.208;2024-01-30T07:38:17;4.55;;;2.27;;
75548;SDS011;64133;56.002;37.208;2024-01-30T07:43:26;2.17;;;1.92;;
75548;SDS011;64133;56.002;37.208;2024-01-30T07:48:33;4.72;;;2.40;;
75548;SDS011;64133;56.002;37.208;2024-01-30T07:53:38;5.40;;;2.42;;
75548;SDS011;64133;56.002;37.208;2024-01-30T07:58:43;5.70;;;2.37;;
75548;SDS011;64133;56.002;37.208;2024-01-30T08:03:48;3.92;;;2.20;;
75548;SDS011;64133;56.002;37.208;2024-01-30T08:08:53;6.40;;;2.87;;
75548;SDS011;64133;56.002;37.208;2024-01-30T08:13:58;3.75;;;1.82;;
75548;SDS011;64133;56.002;37.208;2024-01-30T08:19:03;5.83;;;2.80;;
75548;SDS011;64133;56.002;37.208;2024-01-30T08:24:08;5.80;;;2.58;;
75548;SDS011;64133;56.002;37.208;2024-01-30T08:29:14;4.47;;;2.45;;
75548;SDS011;64133;56.002;37.208;2024-01-30T08:34:19;4.00;;;2.37;;
75548;SDS011;64133;56.002;37.208;2024-01-30T08:39:24;6.97;;;2.60;;
75548;SDS011;64133;56.002;37.208;2024-01-30T08:44:29;5.08;;;2.67;;
75548;SDS011;64133;56.002;37.208;2024-01-30T08:49:34;3.62;;;2.05;;
75548;SDS011;64133;56.002;37.208;2024-01-30T08:54:39;2.47;;;1.60;;
75548;SDS011;64133;56.002;37.208;2024-01-30T08:59:44;4.95;;;1.92;;
75548;SDS011;64133;56.002;37.208;2024-01-30T09:04:49;5.80;;;2.40;;
75548;SDS011;64133;56.002;37.208;2024-01-30T09:09:54;4.70;;;2.80;;
75548;SDS011;64133;56.002;37.208;2024-01-30T09:14:59;7.55;;;2.35;;
75548;SDS011;64133;56.002;37.208;2024-01-30T09:20:05;6.75;;;2.37;;
75548;SDS011;64133;56.002;37.208;2024-01-30T09:25:11;4.80;;;2.58;;
75548;SDS011;64133;56.002;37.208;2024-01-30T09:30:17;9.88;;;3.80;;
75548;SDS011;64133;56.002;37.208;2024-01-30T09:35:22;6.97;;;2.25;;
75548;SDS011;64133;56.002;37.208;2024-01-30T09:40:27;6.17;;;2.50;;
75548;SDS011;64133;56.002;37.208;2024-01-30T09:45:32;3.40;;;2.00;;
75548;SDS011;64133;56.002;37.208;2024-01-30T09:50:37;6.55;;;3.12;;
75548;SDS011;64133;56.002;37.208;2024-01-30T09:55:43;5.33;;;3.42;;
75548;SDS011;64133;56.002;37.208;2024-01-30T10:00:48;7.08;;;3.05;;
75548;SDS011;64133;56.002;37.208;2024-01-30T10:05:53;7.85;;;3.87;;
75548;SDS011;64133;56.002;37.208;2024-01-30T10:10:58;5.83;;;2.58;;
75548;SDS011;64133;56.002;37.208;2024-01-30T10:16:04;11.22;;;4.10;;
75548;SDS011;64133;56.002;37.208;2024-01-30T10:21:10;5.17;;;2.95;;
75548;SDS011;64133;56.002;37.208;2024-01-30T10:26:15;6.67;;;1.92;;
75548;SDS011;64133;56.002;37.208;2024-01-30T10:31:20;7.85;;;3.67;;
75548;SDS011;64133;56.002;37.208;2024-01-30T10:36:27;7.60;;;3.55;;
75548;SDS011;64133;56.002;37.208;2024-01-30T10:41:31;7.35;;;2.90;;
75548;SDS011;64133;56.002;37.208;2024-01-30T10:46:36;4.67;;;2.33;;
75548;SDS011;64133;56.002;37.208;2024-01-30T10:51:40;6.55;;;3.45;;
75548;SDS011;64133;56.002;37.208;2024-01-30T10:56:45;5.97;;;2.62;;
75548;SDS011;64133;56.002;37.208;2024-01-30T11:01:50;4.55;;;2.42;;
75548;SDS011;64133;56.002;37.208;2024-01-30T11:06:55;4.95;;;2.65;;
75548;SDS011;64133;56.002;37.208;2024-01-30T11:12:00;5.25;;;2.20;;
75548;SDS011;64133;56.002;37.208;2024-01-30T11:17:05;3.77;;;2.62;;
75548;SDS011;64133;56.002;37.208;2024-01-30T11:22:10;7.20;;;2.72;;
75548;SDS011;64133;56.002;37.208;2024-01-30T11:27:15;12.75;;;3.35;;
75548;SDS011;64133;56.002;37.208;2024-01-30T11:32:23;5.15;;;2.77;;
75548;SDS011;64133;56.002;37.208;2024-01-30T11:37:28;7.80;;;3.98;;
75548;SDS011;64133;56.002;37.208;2024-01-30T11:42:36;4.35;;;2.00;;
75548;SDS011;64133;56.002;37.208;2024-01-30T11:47:41;4.72;;;2.75;;
75548;SDS011;64133;56.002;37.208;2024-01-30T11:52:46;5.83;;;2.87;;
75548;SDS011;64133;56.002;37.208;2024-01-30T11:57:56;6.33;;;2.92;;
75548;SDS011;64133;56.002;37.208;2024-01-30T12:03:01;5.42;;;2.30;;
75548;SDS011;64133;56.002;37.208;2024-01-30T12:08:06;3.02;;;2.30;;
75548;SDS011;64133;56.002;37.208;2024-01-30T12:13:11;8.08;;;3.20;;
75548;SDS011;64133;56.002;37.208;2024-01-30T12:18:18;5.42;;;2.08;;
75548;SDS011;64133;56.002;37.208;2024-01-30T12:23:23;6.15;;;2.37;;
75548;SDS011;64133;56.002;37.208;2024-01-30T12:28:28;5.87;;;3.02;;
75548;SDS011;64133;56.002;37.208;2024-01-30T12:33:33;7.17;;;2.92;;
75548;SDS011;64133;56.002;37.208;2024-01-30T12:38:37;4.58;;;2.52;;
75548;SDS011;64133;56.002;37.208;2024-01-30T12:43:43;5.67;;;2.65;;
75548;SDS011;64133;56.002;37.208;2024-01-30T12:48:48;6.15;;;3.37;;
75548;SDS011;64133;56.002;37.208;2024-01-30T12:53:53;7.75;;;2.70;;
75548;SDS011;64133;56.002;37.208;2024-01-30T12:58:58;7.60;;;3.37;;
75548;SDS011;64133;56.002;37.208;2024-01-30T13:04:03;3.92;;;2.30;;
75548;SDS011;64133;56.002;37.208;2024-01-30T13:09:08;6.15;;;2.62;;
75548;SDS011;64133;56.002;37.208;2024-01-30T13:14:13;5.15;;;3.05;;
75548;SDS011;64133;56.002;37.208;2024-01-30T13:19:18;6.33;;;2.77;;
75548;SDS011;64133;56.002;37.208;2024-01-30T13:24:23;9.73;;;2.47;;
75548;SDS011;64133;56.002;37.208;2024-01-30T13:29:28;5.28;;;3.30;;
75548;SDS011;64133;56.002;37.208;2024-01-30T13:34:34;5.55;;;2.92;;
75548;SDS011;64133;56.002;37.208;2024-01-30T13:39:39;8.25;;;2.42;;
75548;SDS011;64133;56.002;37.208;2024-01-30T13:44:44;6.42;;;3.55;;
75548;SDS011;64133;56.002;37.208;2024-01-30T13:49:49;7.42;;;3.12;;
75548;SDS011;64133;56.002;37.208;2024-01-30T13:54:54;4.08;;;2.37;;
75548;SDS011;64133;56.002;37.208;2024-01-30T13:59:58;2.90;;;1.90;;
75548;SDS011;64133;56.002;37.208;2024-01-30T14:05:04;7.72;;;3.55;;
75548;SDS011;64133;56.002;37.208;2024-01-30T14:10:09;5.70;;;3.02;;
75548;SDS011;64133;56.002;37.208;2024-01-30T14:15:14;3.62;;;2.55;;
75548;SDS011;64133;56.002;37.208;2024-01-30T14:20:19;7.28;;;3.45;;
75548;SDS011;64133;56.002;37.208;2024-01-30T14:25:24;7.30;;;3.52;;
75548;SDS011;64133;56.002;37.208;2024-01-30T14:30:32;5.83;;;3.33;;
75548;SDS011;64133;56.002;37.208;2024-01-30T14:35:36;6.35;;;3.00;;
75548;SDS011;64133;56.002;37.208;2024-01-30T14:40:41;6.40;;;2.52;;
75548;SDS011;64133;56.002;37.208;2024-01-30T14:45:46;8.00;;;3.40;;
75548;SDS011;64133;56.002;37.208;2024-01-30T14:50:51;4.10;;;1.90;;
75548;SDS011;64133;56.002;37.208;2024-01-30T14:55:56;4.83;;;2.65;;
75548;SDS011;64133;56.002;37.208;2024-01-30T15:01:01;6.80;;;2.92;;
75548;SDS011;64133;56.002;37.208;2024-01-30T15:06:07;4.92;;;2.40;;
75548;SDS011;64133;56.002;37.208;2024-01-30T15:11:12;4.58;;;2.85;;
75548;SDS011;64133;56.002;37.208;2024-01-30T15:16:16;7.55;;;3.30;;
75548;SDS011;64133;56.002;37.208;2024-01-30T15:21:21;27.62;;;4.75;;
75548;SDS011;64133;56.002;37.208;2024-01-30T15:26:26;5.08;;;3.17;;
75548;SDS011;64133;56.002;37.208;2024-01-30T15:31:31;5.55;;;2.77;;
75548;SDS011;64133;56.002;37.208;2024-01-30T15:36:36;4.85;;;2.12;;
75548;SDS011;64133;56.002;37.208;2024-01-30T15:41:41;7.60;;;3.47;;
75548;SDS011;64133;56.002;37.208;2024-01-30T15:46:46;8.23;;;4.30;;
75548;SDS011;64133;56.002;37.208;2024-01-30T15:51:51;8.78;;;3.85;;
75548;SDS011;64133;56.002;37.208;2024-01-30T15:56:56;6.83;;;3.17;;
75548;SDS011;64133;56.002;37.208;2024-01-30T16:02:01;6.92;;;3.35;;
75548;SDS011;64133;56.002;37.208;2024-01-30T16:07:06;7.25;;;3.25;;
75548;SDS011;64133;56.002;37.208;2024-01-30T16:12:11;3.95;;;2.30;;
75548;SDS011;64133;56.002;37.208;2024-01-30T16:17:16;4.47;;;2.95;;
75548;SDS011;64133;56.002;37.208;2024-01-30T16:22:21;11.28;;;2.83;;
75548;SDS011;64133;56.002;37.208;2024-01-30T16:27:26;8.75;;;2.50;;
75548;SDS011;64133;56.002;37.208;2024-01-30T16:32:31;6.12;;;2.80;;
75548;SDS011;64133;56.002;37.208;2024-01-30T16:37:39;11.05;;;3.47;;
75548;SDS011;64133;56.002;37.208;2024-01-30T16:42:43;8.30;;;3.75;;
75548;SDS011;64133;56.002;37.208;2024-01-30T16:47:48;8.73;;;3.58;;
75548;SDS011;64133;56.002;37.208;2024-01-30T16:52:54;5.05;;;2.67;;
75548;SDS011;64133;56.002;37.208;2024-01-30T16:57:58;8.63;;;3.83;;
75548;SDS011;64133;56.002;37.208;2024-01-30T17:03:04;6.62;;;3.05;;
75548;SDS011;64133;56.002;37.208;2024-01-30T17:08:09;11.73;;;4.37;;
75548;SDS011;64133;56.002;37.208;2024-01-30T17:13:16;5.33;;;2.30;;
75548;SDS011;64133;56.002;37.208;2024-01-30T17:18:22;6.45;;;2.98;;
75548;SDS011;64133;56.002;37.208;2024-01-30T17:23:27;9.43;;;5.10;;
75548;SDS011;64133;56.002;37.208;2024-01-30T17:28:32;8.60;;;3.22;;
75548;SDS011;64133;56.002;37.208;2024-01-30T17:33:37;4.90;;;2.50;;
75548;SDS011;64133;56.002;37.208;2024-01-30T17:38:45;4.90;;;2.65;;
75548;SDS011;64133;56.002;37.208;2024-01-30T17:43:52;7.55;;;3.25;;
75548;SDS011;64133;56.002;37.208;2024-01-30T17:48:57;6.85;;;2.92;;
75548;SDS011;64133;56.002;37.208;2024-01-30T17:54:03;5.78;;;3.70;;
75548;SDS011;64133;56.002;37.208;2024-01-30T17:59:08;10.20;;;5.05;;
75548;SDS011;64133;56.002;37.208;2024-01-30T18:04:13;4.67;;;3.40;;
75548;SDS011;64133;56.002;37.208;2024-01-30T18:09:21;5.92;;;4.10;;
75548;SDS011;64133;56.002;37.208;2024-01-30T18:14:27;5.08;;;3.37;;
75548;SDS011;64133;56.002;37.208;2024-01-30T18:19:33;6.85;;;3.67;;
75548;SDS011;64133;56.002;37.208;2024-01-30T18:24:39;9.28;;;4.25;;
75548;SDS011;64133;56.002;37.208;2024-01-30T18:29:44;6.62;;;3.10;;
75548;SDS011;64133;56.002;37.208;2024-01-30T18:34:52;8.40;;;4.25;;
75548;SDS011;64133;56.002;37.208;2024-01-30T18:39:57;7.20;;;2.70;;
75548;SDS011;64133;56.002;37.208;2024-01-30T18:45:02;10.68;;;3.75;;
75548;SDS011;64133;56.002;37.208;2024-01-30T18:50:08;7.53;;;3.70;;
75548;SDS011;64133;56.002;37.208;2024-01-30T18:55:13;8.53;;;3.72;;
75548;SDS011;64133;56.002;37.208;2024-01-30T19:00:19;10.32;;;3.62;;
75548;SDS011;64133;56.002;37.208;2024-01-30T19:05:24;8.83;;;4.83;;
75548;SDS011;64133;56.002;37.208;2024-01-30T19:10:29;6.92;;;4.15;;
75548;SDS011;64133;56.002;37.208;2024-01-30T19:15:34;6.12;;;3.55;;
75548;SDS011;64133;56.002;37.208;2024-01-30T19:20:39;10.75;;;2.98;;
75548;SDS011;64133;56.002;37.208;2024-01-30T19:25:44;11.78;;;5.17;;
75548;SDS011;64133;56.002;37.208;2024-01-30T19:30:49;8.88;;;4.05;;
75548;SDS011;64133;56.002;37.208;2024-01-30T19:35:54;6.50;;;3.20;;
75548;SDS011;64133;56.002;37.208;2024-01-30T19:40:59;4.45;;;2.02;;
75548;SDS011;64133;56.002;37.208;2024-01-30T19:46:05;5.60;;;3.17;;
75548;SDS011;64133;56.002;37.208;2024-01-30T19:51:10;7.83;;;3.52;;
75548;SDS011;64133;56.002;37.208;2024-01-30T19:56:15;8.60;;;5.22;;
75548;SDS011;64133;56.002;37.208;2024-01-30T20:01:20;7.70;;;3.58;;
75548;SDS011;64133;56.002;37.208;2024-01-30T20:06:25;13.78;;;5.28;;
75548;SDS011;64133;56.002;37.208;2024-01-30T20:11:30;11.68;;;3.12;;
75548;SDS011;64133;56.002;37.208;2024-01-30T20:16:39;5.37;;;2.85;;
75548;SDS011;64133;56.002;37.208;2024-01-30T20:21:43;8.95;;;3.98;;
75548;SDS011;64133;56.002;37.208;2024-01-30T20:26:48;11.78;;;4.20;;
75548;SDS011;64133;56.002;37.208;2024-01-30T20:31:53;8.00;;;4.53;;
75548;SDS011;64133;56.002;37.208;2024-01-30T20:36:58;12.03;;;4.80;;
75548;SDS011;64133;56.002;37.208;2024-01-30T20:42:04;6.87;;;2.75;;
75548;SDS011;64133;56.002;37.208;2024-01-30T20:47:09;7.25;;;3.35;;
75548;SDS011;64133;56.002;37.208;2024-01-30T20:52:14;6.45;;;3.17;;
75548;SDS011;64133;56.002;37.208;2024-01-30T20:57:19;6.80;;;3.47;;
75548;SDS011;64133;56.002;37.208;2024-01-30T21:02:23;2.90;;;1.95;;
75548;SDS011;64133;56.002;37.208;2024-01-30T21:07:28;6.55;;;3.22;;
75548;SDS011;64133;56.002;37.208;2024-01-30T21:12:33;5.60;;;3.47;;
75548;SDS011;64133;56.002;37.208;2024-01-30T21:17:38;9.80;;;4.62;;
75548;SDS011;64133;56.002;37.208;2024-01-30T21:22:43;5.62;;;3.47;;
75548;SDS011;64133;56.002;37.208;2024-01-30T21:27:48;10.75;;;3.58;;
75548;SDS011;64133;56.002;37.208;2024-01-30T21:32:53;10.80;;;4.05;;
75548;SDS011;64133;56.002;37.208;2024-01-30T21:37:58;7.97;;;3.87;;
75548;SDS011;64133;56.002;37.208;2024-01-30T21:43:03;5.00;;;3.10;;
75548;SDS011;64133;56.002;37.208;2024-01-30T21:48:08;9.20;;;3.15;;
75548;SDS011;64133;56.002;37.208;2024-01-30T21:53:13;7.33;;;3.42;;
75548;SDS011;64133;56.002;37.208;2024-01-30T21:58:18;10.63;;;5.62;;
75548;SDS011;64133;56.002;37.208;2024-01-30T22:03:23;6.72;;;3.52;;
75548;SDS011;64133;56.002;37.208;2024-01-30T22:08:28;12.58;;;4.55;;
75548;SDS011;64133;56.002;37.208;2024-01-30T22:13:33;12.68;;;3.50;;
75548;SDS011;64133;56.002;37.208;2024-01-30T22:18:39;3.42;;;2.05;;
75548;SDS011;64133;56.002;37.208;2024-01-30T22:23:44;9.03;;;3.90;;
75548;SDS011;64133;56.002;37.208;2024-01-30T22:28:49;8.63;;;3.83;;
75548;SDS011;64133;56.002;37.208;2024-01-30T22:33:54;13.62;;;3.58;;
75548;SDS011;64133;56.002;37.208;2024-01-30T22:39:01;6.85;;;3.55;;
75548;SDS011;64133;56.002;37.208;2024-01-30T22:44:08;6.17;;;2.47;;
75548;SDS011;64133;56.002;37.208;2024-01-30T22:49:13;6.20;;;3.80;;
75548;SDS011;64133;56.002;37.208;2024-01-30T22:54:18;13.32;;;4.58;;
75548;SDS011;64133;56.002;37.208;2024-01-30T22:59:23;14.00;;;2.72;;
75548;SDS011;64133;56.002;37.208;2024-01-30T23:04:28;10.28;;;3.77;;
75548;SDS011;64133;56.002;37.208;2024-01-30T23:09:33;8.38;;;2.72;;
75548;SDS011;64133;56.002;37.208;2024-01-30T23:14:38;9.15;;;4.25;;
75548;SDS011;64133;56.002;37.208;2024-01-30T23:19:43;11.40;;;3.98;;
75548;SDS011;64133;56.002;37.208;2024-01-30T23:24:48;7.20;;;3.58;;
75548;SDS011;64133;56.002;37.208;2024-01-30T23:29:52;8.28;;;3.65;;
75548;SDS011;64133;56.002;37.208;2024-01-30T23:34:57;7.70;;;4.37;;
75548;SDS011;64133;56.002;37.208;2024-01-30T23:40:03;8.90;;;3.37;;
75548;SDS011;64133;56.002;37.208;2024-01-30T23:45:09;7.47;;;2.87;;
75548;SDS011;64133;56.002;37.208;2024-01-30T23:50:14;9.43;;;4.08;;
75548;SDS011;64133;56.002;37.208;2024-01-30T23:55:19;5.72;;;3.72;;
